Terminal Aerodrome Forecast
Issued by NWS

Current Version | Previous Version | Graphics & Text | Print | Product List | Glossary On
Versions: 1 2 3 4 5 6 7 8 9 10 11 12 13 14 15 16 17 18 19
000
FTUS41 KPBZ 031127
TAFHLG
TAF
KHLG 031127Z 0312/0412 21007KT P6SM BKN060 BKN250
     FM031600 21010G17KT P6SM VCSH BKN050
     FM031900 22013G20KT 6SM -SHRA VCTS BKN040CB
     FM040300 26008KT P6SM BKN040
     FM041000 VRB03KT P6SM SCT040=

USA.gov is the U.S. government's official web portal to all federal, state and local government web resources and services.